sensor_id;sensor_type;location;lat;lon;timestamp;P1;durP1;ratioP1;P2;durP2;ratioP2
64520;SDS011;50896;46.714;17.322;2023-03-01T00:01:27;31.50;;;18.75;;
64520;SDS011;50896;46.714;17.322;2023-03-01T00:03:56;29.88;;;19.25;;
64520;SDS011;50896;46.714;17.322;2023-03-01T00:06:24;32.67;;;19.25;;
64520;SDS011;50896;46.714;17.322;2023-03-01T00:08:52;29.27;;;18.75;;
64520;SDS011;50896;46.714;17.322;2023-03-01T00:11:22;30.33;;;17.67;;
64520;SDS011;50896;46.714;17.322;2023-03-01T00:13:51;27.48;;;18.08;;
64520;SDS011;50896;46.714;17.322;2023-03-01T00:16:29;27.85;;;16.75;;
64520;SDS011;50896;46.714;17.322;2023-03-01T00:19:00;27.92;;;17.30;;
64520;SDS011;50896;46.714;17.322;2023-03-01T00:21:27;24.95;;;16.25;;
64520;SDS011;50896;46.714;17.322;2023-03-01T00:23:55;28.05;;;16.20;;
64520;SDS011;50896;46.714;17.322;2023-03-01T00:26:23;28.23;;;16.13;;
64520;SDS011;50896;46.714;17.322;2023-03-01T00:28:51;27.05;;;15.07;;
64520;SDS011;50896;46.714;17.322;2023-03-01T00:31:19;28.27;;;16.55;;
64520;SDS011;50896;46.714;17.322;2023-03-01T00:33:48;26.25;;;15.98;;
64520;SDS011;50896;46.714;17.322;2023-03-01T00:36:15;25.77;;;16.02;;
64520;SDS011;50896;46.714;17.322;2023-03-01T00:38:43;27.05;;;15.27;;
64520;SDS011;50896;46.714;17.322;2023-03-01T00:41:12;23.95;;;14.32;;
64520;SDS011;50896;46.714;17.322;2023-03-01T00:43:41;24.48;;;14.32;;
64520;SDS011;50896;46.714;17.322;2023-03-01T00:46:10;23.02;;;14.25;;
64520;SDS011;50896;46.714;17.322;2023-03-01T00:48:44;24.45;;;15.20;;
64520;SDS011;50896;46.714;17.322;2023-03-01T00:51:16;23.42;;;14.25;;
64520;SDS011;50896;46.714;17.322;2023-03-01T00:53:45;27.88;;;14.45;;
64520;SDS011;50896;46.714;17.322;2023-03-01T00:56:12;27.08;;;13.98;;
64520;SDS011;50896;46.714;17.322;2023-03-01T00:58:42;21.65;;;13.40;;
64520;SDS011;50896;46.714;17.322;2023-03-01T01:01:10;18.95;;;12.13;;
64520;SDS011;50896;46.714;17.322;2023-03-01T01:03:59;23.23;;;12.35;;
64520;SDS011;50896;46.714;17.322;2023-03-01T01:06:32;20.58;;;12.40;;
64520;SDS011;50896;46.714;17.322;2023-03-01T01:09:02;20.40;;;13.05;;
64520;SDS011;50896;46.714;17.322;2023-03-01T01:11:31;19.40;;;12.13;;
64520;SDS011;50896;46.714;17.322;2023-03-01T01:13:58;19.85;;;12.55;;
64520;SDS011;50896;46.714;17.322;2023-03-01T01:16:26;21.27;;;12.20;;
64520;SDS011;50896;46.714;17.322;2023-03-01T01:18:55;19.92;;;11.90;;
64520;SDS011;50896;46.714;17.322;2023-03-01T01:21:23;21.52;;;12.73;;
64520;SDS011;50896;46.714;17.322;2023-03-01T01:23:51;20.48;;;12.82;;
64520;SDS011;50896;46.714;17.322;2023-03-01T01:26:28;20.45;;;12.30;;
64520;SDS011;50896;46.714;17.322;2023-03-01T01:28:57;22.23;;;12.25;;
64520;SDS011;50896;46.714;17.322;2023-03-01T01:31:26;24.55;;;12.48;;
64520;SDS011;50896;46.714;17.322;2023-03-01T01:36:23;21.50;;;13.20;;
64520;SDS011;50896;46.714;17.322;2023-03-01T01:38:50;18.90;;;11.75;;
64520;SDS011;50896;46.714;17.322;2023-03-01T01:41:18;21.20;;;12.75;;
64520;SDS011;50896;46.714;17.322;2023-03-01T01:43:47;21.95;;;13.18;;
64520;SDS011;50896;46.714;17.322;2023-03-01T01:46:34;18.67;;;12.40;;
64520;SDS011;50896;46.714;17.322;2023-03-01T01:49:17;20.27;;;12.85;;
64520;SDS011;50896;46.714;17.322;2023-03-01T01:51:51;23.63;;;13.60;;
64520;SDS011;50896;46.714;17.322;2023-03-01T01:54:25;21.08;;;13.45;;
64520;SDS011;50896;46.714;17.322;2023-03-01T01:57:00;26.83;;;14.48;;
64520;SDS011;50896;46.714;17.322;2023-03-01T01:59:32;23.55;;;13.80;;
64520;SDS011;50896;46.714;17.322;2023-03-01T02:02:00;20.88;;;12.65;;
64520;SDS011;50896;46.714;17.322;2023-03-01T02:04:30;21.10;;;12.98;;
64520;SDS011;50896;46.714;17.322;2023-03-01T02:07:03;23.10;;;13.65;;
64520;SDS011;50896;46.714;17.322;2023-03-01T02:09:35;24.05;;;13.65;;
64520;SDS011;50896;46.714;17.322;2023-03-01T02:12:02;21.25;;;12.85;;
64520;SDS011;50896;46.714;17.322;2023-03-01T02:14:32;21.20;;;12.50;;
64520;SDS011;50896;46.714;17.322;2023-03-01T02:16:59;21.58;;;13.60;;
64520;SDS011;50896;46.714;17.322;2023-03-01T02:19:36;19.63;;;13.02;;
64520;SDS011;50896;46.714;17.322;2023-03-01T02:22:16;20.73;;;13.38;;
64520;SDS011;50896;46.714;17.322;2023-03-01T02:27:45;22.40;;;12.93;;
64520;SDS011;50896;46.714;17.322;2023-03-01T02:30:15;20.95;;;12.70;;
64520;SDS011;50896;46.714;17.322;2023-03-01T02:32:43;21.67;;;12.98;;
64520;SDS011;50896;46.714;17.322;2023-03-01T02:35:10;23.85;;;14.20;;
64520;SDS011;50896;46.714;17.322;2023-03-01T02:37:41;28.48;;;13.98;;
64520;SDS011;50896;46.714;17.322;2023-03-01T02:40:10;26.23;;;13.15;;
64520;SDS011;50896;46.714;17.322;2023-03-01T02:42:45;23.85;;;13.85;;
64520;SDS011;50896;46.714;17.322;2023-03-01T02:45:17;21.73;;;13.45;;
64520;SDS011;50896;46.714;17.322;2023-03-01T02:47:44;26.75;;;14.38;;
64520;SDS011;50896;46.714;17.322;2023-03-01T02:55:32;24.35;;;13.32;;
64520;SDS011;50896;46.714;17.322;2023-03-01T02:58:00;22.08;;;13.23;;
64520;SDS011;50896;46.714;17.322;2023-03-01T03:00:32;21.13;;;13.52;;
64520;SDS011;50896;46.714;17.322;2023-03-01T03:03:06;27.77;;;14.35;;
64520;SDS011;50896;46.714;17.322;2023-03-01T03:05:34;30.77;;;13.43;;
64520;SDS011;50896;46.714;17.322;2023-03-01T03:08:02;21.75;;;13.45;;
64520;SDS011;50896;46.714;17.322;2023-03-01T03:10:35;26.38;;;14.38;;
64520;SDS011;50896;46.714;17.322;2023-03-01T03:13:05;22.98;;;14.25;;
64520;SDS011;50896;46.714;17.322;2023-03-01T03:15:37;26.98;;;13.65;;
64520;SDS011;50896;46.714;17.322;2023-03-01T03:18:09;21.52;;;12.60;;
64520;SDS011;50896;46.714;17.322;2023-03-01T03:20:39;24.75;;;13.30;;
64520;SDS011;50896;46.714;17.322;2023-03-01T03:23:07;21.20;;;13.30;;
64520;SDS011;50896;46.714;17.322;2023-03-01T03:25:35;26.80;;;14.30;;
64520;SDS011;50896;46.714;17.322;2023-03-01T03:28:05;23.13;;;13.32;;
64520;SDS011;50896;46.714;17.322;2023-03-01T03:30:37;18.67;;;12.10;;
64520;SDS011;50896;46.714;17.322;2023-03-01T03:33:06;25.10;;;14.05;;
64520;SDS011;50896;46.714;17.322;2023-03-01T03:35:37;21.60;;;12.43;;
64520;SDS011;50896;46.714;17.322;2023-03-01T03:38:07;20.10;;;12.65;;
64520;SDS011;50896;46.714;17.322;2023-03-01T03:40:48;20.67;;;12.40;;
64520;SDS011;50896;46.714;17.322;2023-03-01T03:43:18;24.50;;;13.45;;
64520;SDS011;50896;46.714;17.322;2023-03-01T03:45:46;23.77;;;14.05;;
64520;SDS011;50896;46.714;17.322;2023-03-01T03:48:14;23.58;;;13.30;;
64520;SDS011;50896;46.714;17.322;2023-03-01T03:50:46;24.23;;;14.00;;
64520;SDS011;50896;46.714;17.322;2023-03-01T03:53:15;27.48;;;14.43;;
64520;SDS011;50896;46.714;17.322;2023-03-01T03:55:43;26.63;;;14.85;;
64520;SDS011;50896;46.714;17.322;2023-03-01T03:58:10;26.48;;;14.68;;
64520;SDS011;50896;46.714;17.322;2023-03-01T04:00:38;28.33;;;15.60;;
64520;SDS011;50896;46.714;17.322;2023-03-01T04:03:07;27.60;;;15.45;;
64520;SDS011;50896;46.714;17.322;2023-03-01T04:05:35;32.22;;;16.08;;
64520;SDS011;50896;46.714;17.322;2023-03-01T04:08:02;32.05;;;17.05;;
64520;SDS011;50896;46.714;17.322;2023-03-01T04:10:31;29.67;;;15.48;;
64520;SDS011;50896;46.714;17.322;2023-03-01T04:12:59;28.20;;;16.77;;
64520;SDS011;50896;46.714;17.322;2023-03-01T04:15:26;29.42;;;16.27;;
64520;SDS011;50896;46.714;17.322;2023-03-01T04:17:54;30.23;;;16.13;;
64520;SDS011;50896;46.714;17.322;2023-03-01T04:20:26;31.17;;;17.52;;
64520;SDS011;50896;46.714;17.322;2023-03-01T04:25:25;29.88;;;17.17;;
64520;SDS011;50896;46.714;17.322;2023-03-01T04:27:52;31.45;;;17.60;;
64520;SDS011;50896;46.714;17.322;2023-03-01T04:30:19;32.50;;;17.88;;
64520;SDS011;50896;46.714;17.322;2023-03-01T04:32:46;33.42;;;18.08;;
64520;SDS011;50896;46.714;17.322;2023-03-01T04:35:13;33.15;;;18.30;;
64520;SDS011;50896;46.714;17.322;2023-03-01T04:37:40;31.25;;;17.52;;
64520;SDS011;50896;46.714;17.322;2023-03-01T04:40:08;29.45;;;17.95;;
64520;SDS011;50896;46.714;17.322;2023-03-01T04:42:42;37.47;;;18.83;;
64520;SDS011;50896;46.714;17.322;2023-03-01T04:45:09;31.63;;;18.15;;
64520;SDS011;50896;46.714;17.322;2023-03-01T04:47:43;32.75;;;17.63;;
64520;SDS011;50896;46.714;17.322;2023-03-01T04:50:13;33.25;;;17.50;;
64520;SDS011;50896;46.714;17.322;2023-03-01T04:52:44;35.92;;;19.80;;
64520;SDS011;50896;46.714;17.322;2023-03-01T04:55:11;32.05;;;17.63;;
64520;SDS011;50896;46.714;17.322;2023-03-01T04:57:37;34.90;;;19.15;;
64520;SDS011;50896;46.714;17.322;2023-03-01T05:00:06;31.23;;;18.63;;
64520;SDS011;50896;46.714;17.322;2023-03-01T05:02:53;33.70;;;17.67;;
64520;SDS011;50896;46.714;17.322;2023-03-01T05:05:24;35.92;;;18.92;;
64520;SDS011;50896;46.714;17.322;2023-03-01T05:07:54;34.35;;;19.55;;
64520;SDS011;50896;46.714;17.322;2023-03-01T05:10:26;38.35;;;20.35;;
64520;SDS011;50896;46.714;17.322;2023-03-01T05:12:56;34.63;;;19.02;;
64520;SDS011;50896;46.714;17.322;2023-03-01T05:15:25;34.70;;;19.00;;
64520;SDS011;50896;46.714;17.322;2023-03-01T05:17:53;35.55;;;18.80;;
64520;SDS011;50896;46.714;17.322;2023-03-01T05:20:21;32.15;;;18.27;;
64520;SDS011;50896;46.714;17.322;2023-03-01T05:22:52;34.20;;;19.65;;
64520;SDS011;50896;46.714;17.322;2023-03-01T05:25:21;32.75;;;19.20;;
64520;SDS011;50896;46.714;17.322;2023-03-01T05:27:48;35.38;;;19.48;;
64520;SDS011;50896;46.714;17.322;2023-03-01T05:30:15;32.88;;;19.30;;
64520;SDS011;50896;46.714;17.322;2023-03-01T05:32:44;34.47;;;19.67;;
64520;SDS011;50896;46.714;17.322;2023-03-01T05:35:13;34.20;;;20.42;;
64520;SDS011;50896;46.714;17.322;2023-03-01T05:37:45;36.17;;;19.13;;
64520;SDS011;50896;46.714;17.322;2023-03-01T05:40:15;35.50;;;20.30;;
64520;SDS011;50896;46.714;17.322;2023-03-01T05:45:15;30.15;;;17.65;;
64520;SDS011;50896;46.714;17.322;2023-03-01T05:47:44;34.20;;;19.27;;
64520;SDS011;50896;46.714;17.322;2023-03-01T05:50:13;37.70;;;18.60;;
64520;SDS011;50896;46.714;17.322;2023-03-01T05:52:40;33.13;;;18.25;;
64520;SDS011;50896;46.714;17.322;2023-03-01T05:55:07;33.72;;;19.35;;
64520;SDS011;50896;46.714;17.322;2023-03-01T05:57:34;33.83;;;18.42;;
64520;SDS011;50896;46.714;17.322;2023-03-01T06:00:02;32.63;;;17.80;;
64520;SDS011;50896;46.714;17.322;2023-03-01T06:02:37;31.30;;;18.63;;
64520;SDS011;50896;46.714;17.322;2023-03-01T06:05:05;31.30;;;18.83;;
64520;SDS011;50896;46.714;17.322;2023-03-01T06:07:33;36.45;;;18.92;;
64520;SDS011;50896;46.714;17.322;2023-03-01T06:10:01;37.53;;;19.55;;
64520;SDS011;50896;46.714;17.322;2023-03-01T06:12:30;35.22;;;18.77;;
64520;SDS011;50896;46.714;17.322;2023-03-01T06:14:58;33.92;;;19.13;;
64520;SDS011;50896;46.714;17.322;2023-03-01T06:17:25;33.30;;;18.83;;
64520;SDS011;50896;46.714;17.322;2023-03-01T06:19:55;32.88;;;19.52;;
64520;SDS011;50896;46.714;17.322;2023-03-01T06:22:21;31.98;;;19.30;;
64520;SDS011;50896;46.714;17.322;2023-03-01T06:24:48;31.48;;;18.52;;
64520;SDS011;50896;46.714;17.322;2023-03-01T06:27:15;35.00;;;18.45;;
64520;SDS011;50896;46.714;17.322;2023-03-01T06:29:42;34.22;;;18.77;;
64520;SDS011;50896;46.714;17.322;2023-03-01T06:32:09;37.22;;;19.30;;
64520;SDS011;50896;46.714;17.322;2023-03-01T06:34:36;31.60;;;19.10;;
64520;SDS011;50896;46.714;17.322;2023-03-01T06:37:02;34.70;;;18.20;;
64520;SDS011;50896;46.714;17.322;2023-03-01T06:39:31;38.42;;;19.10;;
64520;SDS011;50896;46.714;17.322;2023-03-01T06:41:59;35.45;;;19.58;;
64520;SDS011;50896;46.714;17.322;2023-03-01T06:44:26;39.35;;;18.98;;
64520;SDS011;50896;46.714;17.322;2023-03-01T06:46:53;36.00;;;18.85;;
64520;SDS011;50896;46.714;17.322;2023-03-01T06:49:20;34.88;;;20.00;;
64520;SDS011;50896;46.714;17.322;2023-03-01T06:51:47;35.35;;;18.75;;
64520;SDS011;50896;46.714;17.322;2023-03-01T06:54:14;35.05;;;19.92;;
64520;SDS011;50896;46.714;17.322;2023-03-01T06:56:41;41.85;;;20.88;;
64520;SDS011;50896;46.714;17.322;2023-03-01T06:59:08;37.90;;;19.55;;
64520;SDS011;50896;46.714;17.322;2023-03-01T07:01:34;33.05;;;19.20;;
64520;SDS011;50896;46.714;17.322;2023-03-01T07:04:01;34.63;;;19.40;;
64520;SDS011;50896;46.714;17.322;2023-03-01T07:06:28;36.17;;;19.23;;
64520;SDS011;50896;46.714;17.322;2023-03-01T07:08:55;36.47;;;19.65;;
64520;SDS011;50896;46.714;17.322;2023-03-01T07:11:22;43.65;;;20.27;;
64520;SDS011;50896;46.714;17.322;2023-03-01T07:13:49;39.30;;;20.02;;
64520;SDS011;50896;46.714;17.322;2023-03-01T07:16:16;41.03;;;19.75;;
64520;SDS011;50896;46.714;17.322;2023-03-01T07:18:43;34.58;;;19.70;;
64520;SDS011;50896;46.714;17.322;2023-03-01T07:21:11;39.10;;;20.17;;
64520;SDS011;50896;46.714;17.322;2023-03-01T07:23:38;37.00;;;19.83;;
64520;SDS011;50896;46.714;17.322;2023-03-01T07:26:06;36.13;;;19.38;;
64520;SDS011;50896;46.714;17.322;2023-03-01T07:28:33;38.85;;;20.55;;
64520;SDS011;50896;46.714;17.322;2023-03-01T07:31:05;35.78;;;20.02;;
64520;SDS011;50896;46.714;17.322;2023-03-01T07:33:32;40.95;;;21.95;;
64520;SDS011;50896;46.714;17.322;2023-03-01T07:36:00;42.22;;;21.27;;
64520;SDS011;50896;46.714;17.322;2023-03-01T07:38:31;40.25;;;21.55;;
64520;SDS011;50896;46.714;17.322;2023-03-01T07:40:59;38.47;;;21.65;;
64520;SDS011;50896;46.714;17.322;2023-03-01T07:43:28;36.10;;;20.08;;
64520;SDS011;50896;46.714;17.322;2023-03-01T07:45:58;44.53;;;22.27;;
64520;SDS011;50896;46.714;17.322;2023-03-01T07:48:27;41.25;;;21.80;;
64520;SDS011;50896;46.714;17.322;2023-03-01T07:50:54;44.03;;;21.67;;
64520;SDS011;50896;46.714;17.322;2023-03-01T07:53:23;35.33;;;20.02;;
64520;SDS011;50896;46.714;17.322;2023-03-01T07:55:59;37.97;;;21.42;;
64520;SDS011;50896;46.714;17.322;2023-03-01T07:58:30;38.70;;;20.88;;
64520;SDS011;50896;46.714;17.322;2023-03-01T08:01:00;41.22;;;22.42;;
64520;SDS011;50896;46.714;17.322;2023-03-01T08:03:29;40.80;;;20.63;;
64520;SDS011;50896;46.714;17.322;2023-03-01T08:05:56;41.83;;;21.70;;
64520;SDS011;50896;46.714;17.322;2023-03-01T08:08:25;41.30;;;21.03;;
64520;SDS011;50896;46.714;17.322;2023-03-01T08:10:52;41.10;;;22.65;;
64520;SDS011;50896;46.714;17.322;2023-03-01T08:13:19;44.08;;;22.45;;
64520;SDS011;50896;46.714;17.322;2023-03-01T08:15:48;46.20;;;23.27;;
64520;SDS011;50896;46.714;17.322;2023-03-01T08:18:16;42.67;;;22.50;;
64520;SDS011;50896;46.714;17.322;2023-03-01T08:20:44;42.35;;;23.73;;
64520;SDS011;50896;46.714;17.322;2023-03-01T08:23:11;45.33;;;24.25;;
64520;SDS011;50896;46.714;17.322;2023-03-01T08:25:38;45.95;;;24.67;;
64520;SDS011;50896;46.714;17.322;2023-03-01T08:28:05;43.38;;;22.42;;
64520;SDS011;50896;46.714;17.322;2023-03-01T08:30:32;42.97;;;22.98;;
64520;SDS011;50896;46.714;17.322;2023-03-01T08:32:59;50.85;;;23.65;;
64520;SDS011;50896;46.714;17.322;2023-03-01T08:35:25;45.38;;;23.50;;
64520;SDS011;50896;46.714;17.322;2023-03-01T08:37:52;43.45;;;22.25;;
64520;SDS011;50896;46.714;17.322;2023-03-01T08:40:19;41.30;;;22.45;;
64520;SDS011;50896;46.714;17.322;2023-03-01T08:42:46;42.10;;;22.17;;
64520;SDS011;50896;46.714;17.322;2023-03-01T08:45:13;41.35;;;22.05;;
64520;SDS011;50896;46.714;17.322;2023-03-01T08:47:44;42.42;;;23.50;;
64520;SDS011;50896;46.714;17.322;2023-03-01T08:50:11;47.40;;;24.77;;
64520;SDS011;50896;46.714;17.322;2023-03-01T08:52:38;45.95;;;23.88;;
64520;SDS011;50896;46.714;17.322;2023-03-01T08:55:05;45.80;;;23.60;;
64520;SDS011;50896;46.714;17.322;2023-03-01T08:57:33;43.95;;;23.70;;
64520;SDS011;50896;46.714;17.322;2023-03-01T08:59:59;46.97;;;24.50;;
64520;SDS011;50896;46.714;17.322;2023-03-01T09:02:26;47.45;;;24.58;;
64520;SDS011;50896;46.714;17.322;2023-03-01T09:04:53;49.58;;;26.23;;
64520;SDS011;50896;46.714;17.322;2023-03-01T09:07:20;48.97;;;24.63;;
64520;SDS011;50896;46.714;17.322;2023-03-01T09:09:47;47.72;;;25.63;;
64520;SDS011;50896;46.714;17.322;2023-03-01T09:12:14;56.78;;;26.33;;
64520;SDS011;50896;46.714;17.322;2023-03-01T09:14:41;49.70;;;26.08;;
64520;SDS011;50896;46.714;17.322;2023-03-01T09:17:08;51.58;;;27.33;;
64520;SDS011;50896;46.714;17.322;2023-03-01T09:19:35;52.47;;;26.48;;
64520;SDS011;50896;46.714;17.322;2023-03-01T09:22:02;54.05;;;25.85;;
64520;SDS011;50896;46.714;17.322;2023-03-01T09:24:30;46.55;;;25.58;;
64520;SDS011;50896;46.714;17.322;2023-03-01T09:26:57;51.22;;;25.25;;
64520;SDS011;50896;46.714;17.322;2023-03-01T09:29:24;52.65;;;27.20;;
64520;SDS011;50896;46.714;17.322;2023-03-01T09:31:52;50.42;;;26.55;;
64520;SDS011;50896;46.714;17.322;2023-03-01T09:34:22;53.47;;;26.23;;
64520;SDS011;50896;46.714;17.322;2023-03-01T09:36:50;47.13;;;25.58;;
64520;SDS011;50896;46.714;17.322;2023-03-01T09:39:17;52.67;;;27.63;;
64520;SDS011;50896;46.714;17.322;2023-03-01T09:41:57;50.97;;;26.88;;
64520;SDS011;50896;46.714;17.322;2023-03-01T09:44:30;51.85;;;26.95;;
64520;SDS011;50896;46.714;17.322;2023-03-01T09:47:12;51.80;;;27.13;;
64520;SDS011;50896;46.714;17.322;2023-03-01T09:49:45;56.33;;;27.13;;
64520;SDS011;50896;46.714;17.322;2023-03-01T09:55:13;54.05;;;26.27;;
64520;SDS011;50896;46.714;17.322;2023-03-01T09:57:48;52.42;;;25.98;;
64520;SDS011;50896;46.714;17.322;2023-03-01T10:00:25;52.75;;;26.83;;
64520;SDS011;50896;46.714;17.322;2023-03-01T10:03:11;54.05;;;27.92;;
64520;SDS011;50896;46.714;17.322;2023-03-01T10:10:53;48.97;;;26.05;;
64520;SDS011;50896;46.714;17.322;2023-03-01T10:19:17;46.63;;;25.52;;
64520;SDS011;50896;46.714;17.322;2023-03-01T10:21:50;51.13;;;25.95;;
64520;SDS011;50896;46.714;17.322;2023-03-01T10:24:19;48.70;;;25.23;;
64520;SDS011;50896;46.714;17.322;2023-03-01T10:29:21;46.65;;;24.77;;
64520;SDS011;50896;46.714;17.322;2023-03-01T10:31:52;48.55;;;25.48;;
64520;SDS011;50896;46.714;17.322;2023-03-01T10:34:21;48.42;;;25.13;;
64520;SDS011;50896;46.714;17.322;2023-03-01T10:36:58;48.97;;;24.45;;
64520;SDS011;50896;46.714;17.322;2023-03-01T10:39:36;49.78;;;24.52;;
64520;SDS011;50896;46.714;17.322;2023-03-01T10:42:22;47.72;;;25.10;;
64520;SDS011;50896;46.714;17.322;2023-03-01T10:44:53;52.67;;;26.60;;
64520;SDS011;50896;46.714;17.322;2023-03-01T10:47:22;48.78;;;25.73;;
64520;SDS011;50896;46.714;17.322;2023-03-01T10:50:01;47.78;;;25.05;;
64520;SDS011;50896;46.714;17.322;2023-03-01T10:52:34;54.83;;;25.85;;
64520;SDS011;50896;46.714;17.322;2023-03-01T10:57:42;52.30;;;25.92;;
64520;SDS011;50896;46.714;17.322;2023-03-01T11:00:19;47.47;;;25.77;;
64520;SDS011;50896;46.714;17.322;2023-03-01T11:05:26;46.33;;;24.17;;
64520;SDS011;50896;46.714;17.322;2023-03-01T11:07:59;44.40;;;24.65;;
64520;SDS011;50896;46.714;17.322;2023-03-01T11:10:34;45.65;;;24.05;;
64520;SDS011;50896;46.714;17.322;2023-03-01T11:13:09;42.45;;;23.38;;
64520;SDS011;50896;46.714;17.322;2023-03-01T11:15:42;45.30;;;24.23;;
64520;SDS011;50896;46.714;17.322;2023-03-01T11:18:24;43.53;;;23.27;;
64520;SDS011;50896;46.714;17.322;2023-03-01T11:21:12;41.40;;;24.35;;
64520;SDS011;50896;46.714;17.322;2023-03-01T11:23:39;43.33;;;23.45;;
64520;SDS011;50896;46.714;17.322;2023-03-01T11:26:08;48.55;;;23.73;;
64520;SDS011;50896;46.714;17.322;2023-03-01T11:31:06;43.63;;;22.63;;
64520;SDS011;50896;46.714;17.322;2023-03-01T11:33:47;40.53;;;21.65;;
64520;SDS011;50896;46.714;17.322;2023-03-01T11:36:34;43.05;;;21.83;;
64520;SDS011;50896;46.714;17.322;2023-03-01T11:41:44;39.08;;;20.35;;
64520;SDS011;50896;46.714;17.322;2023-03-01T11:44:23;47.70;;;21.90;;
64520;SDS011;50896;46.714;17.322;2023-03-01T11:53:02;41.30;;;21.48;;
64520;SDS011;50896;46.714;17.322;2023-03-01T11:55:42;43.38;;;23.90;;
64520;SDS011;50896;46.714;17.322;2023-03-01T12:03:30;41.42;;;21.83;;
64520;SDS011;50896;46.714;17.322;2023-03-01T12:06:12;40.08;;;21.27;;
64520;SDS011;50896;46.714;17.322;2023-03-01T12:08:45;42.10;;;23.45;;
64520;SDS011;50896;46.714;17.322;2023-03-01T12:11:29;41.17;;;22.90;;
64520;SDS011;50896;46.714;17.322;2023-03-01T12:29:06;37.67;;;21.33;;
64520;SDS011;50896;46.714;17.322;2023-03-01T12:51:07;39.13;;;22.27;;
64520;SDS011;50896;46.714;17.322;2023-03-01T12:53:41;37.10;;;21.52;;
64520;SDS011;50896;46.714;17.322;2023-03-01T12:56:15;36.00;;;21.65;;
64520;SDS011;50896;46.714;17.322;2023-03-01T13:12:52;36.00;;;20.75;;
64520;SDS011;50896;46.714;17.322;2023-03-01T13:15:38;40.80;;;23.60;;
64520;SDS011;50896;46.714;17.322;2023-03-01T13:23:11;37.20;;;21.67;;
64520;SDS011;50896;46.714;17.322;2023-03-01T13:31:11;39.22;;;21.52;;
64520;SDS011;50896;46.714;17.322;2023-03-01T13:44:19;45.70;;;22.20;;
64520;SDS011;50896;46.714;17.322;2023-03-01T13:46:47;35.90;;;21.48;;
64520;SDS011;50896;46.714;17.322;2023-03-01T13:49:16;39.30;;;22.20;;
64520;SDS011;50896;46.714;17.322;2023-03-01T13:51:47;40.47;;;21.75;;
64520;SDS011;50896;46.714;17.322;2023-03-01T13:54:15;37.33;;;22.73;;
64520;SDS011;50896;46.714;17.322;2023-03-01T13:56:44;40.08;;;22.38;;
64520;SDS011;50896;46.714;17.322;2023-03-01T13:59:17;43.10;;;22.63;;
64520;SDS011;50896;46.714;17.322;2023-03-01T14:01:51;41.47;;;21.50;;
64520;SDS011;50896;46.714;17.322;2023-03-01T14:04:24;35.92;;;20.55;;
64520;SDS011;50896;46.714;17.322;2023-03-01T14:09:45;40.53;;;22.70;;
64520;SDS011;50896;46.714;17.322;2023-03-01T14:15:45;38.58;;;22.08;;
64520;SDS011;50896;46.714;17.322;2023-03-01T14:19:20;37.42;;;22.52;;
64520;SDS011;50896;46.714;17.322;2023-03-01T14:21:22;38.60;;;21.95;;
64520;SDS011;50896;46.714;17.322;2023-03-01T14:23:49;35.90;;;20.30;;
64520;SDS011;50896;46.714;17.322;2023-03-01T14:26:19;36.03;;;21.52;;
64520;SDS011;50896;46.714;17.322;2023-03-01T14:28:49;37.35;;;20.90;;
64520;SDS011;50896;46.714;17.322;2023-03-01T14:34:19;32.33;;;19.42;;
64520;SDS011;50896;46.714;17.322;2023-03-01T14:36:48;32.92;;;19.77;;
64520;SDS011;50896;46.714;17.322;2023-03-01T14:39:16;31.83;;;19.40;;
64520;SDS011;50896;46.714;17.322;2023-03-01T14:42:00;35.33;;;19.08;;
64520;SDS011;50896;46.714;17.322;2023-03-01T14:47:11;40.08;;;22.80;;
64520;SDS011;50896;46.714;17.322;2023-03-01T14:49:41;42.25;;;22.08;;
64520;SDS011;50896;46.714;17.322;2023-03-01T14:52:20;42.67;;;22.95;;
64520;SDS011;50896;46.714;17.322;2023-03-01T14:54:51;39.85;;;23.08;;
64520;SDS011;50896;46.714;17.322;2023-03-01T14:57:23;41.88;;;22.65;;
64520;SDS011;50896;46.714;17.322;2023-03-01T14:59:53;40.05;;;21.92;;
64520;SDS011;50896;46.714;17.322;2023-03-01T15:02:24;37.42;;;20.42;;
64520;SDS011;50896;46.714;17.322;2023-03-01T15:05:01;45.38;;;23.00;;
64520;SDS011;50896;46.714;17.322;2023-03-01T15:07:36;40.78;;;22.35;;
64520;SDS011;50896;46.714;17.322;2023-03-01T15:10:06;45.88;;;24.08;;
64520;SDS011;50896;46.714;17.322;2023-03-01T15:12:42;40.95;;;23.48;;
64520;SDS011;50896;46.714;17.322;2023-03-01T15:15:22;40.47;;;23.38;;
64520;SDS011;50896;46.714;17.322;2023-03-01T15:17:59;46.13;;;25.48;;
64520;SDS011;50896;46.714;17.322;2023-03-01T15:20:52;41.75;;;24.83;;
64520;SDS011;50896;46.714;17.322;2023-03-01T15:23:21;47.85;;;26.30;;
64520;SDS011;50896;46.714;17.322;2023-03-01T15:25:51;40.90;;;24.17;;
64520;SDS011;50896;46.714;17.322;2023-03-01T15:28:48;40.13;;;23.33;;
64520;SDS011;50896;46.714;17.322;2023-03-01T15:31:19;41.97;;;21.88;;
64520;SDS011;50896;46.714;17.322;2023-03-01T15:33:49;39.05;;;21.52;;
64520;SDS011;50896;46.714;17.322;2023-03-01T15:39:23;35.92;;;21.73;;
64520;SDS011;50896;46.714;17.322;2023-03-01T15:42:05;38.63;;;21.80;;
64520;SDS011;50896;46.714;17.322;2023-03-01T15:45:06;46.88;;;25.45;;
64520;SDS011;50896;46.714;17.322;2023-03-01T15:47:50;46.20;;;26.75;;
64520;SDS011;50896;46.714;17.322;2023-03-01T15:52:48;47.47;;;26.70;;
64520;SDS011;50896;46.714;17.322;2023-03-01T15:55:17;44.78;;;27.70;;
64520;SDS011;50896;46.714;17.322;2023-03-01T15:57:46;48.67;;;27.08;;
64520;SDS011;50896;46.714;17.322;2023-03-01T16:00:13;48.35;;;27.65;;
64520;SDS011;50896;46.714;17.322;2023-03-01T16:02:42;47.22;;;26.85;;
64520;SDS011;50896;46.714;17.322;2023-03-01T16:05:17;43.70;;;24.70;;
64520;SDS011;50896;46.714;17.322;2023-03-01T16:07:47;43.45;;;25.15;;
64520;SDS011;50896;46.714;17.322;2023-03-01T16:10:14;42.85;;;25.60;;
64520;SDS011;50896;46.714;17.322;2023-03-01T16:12:41;46.67;;;25.13;;
64520;SDS011;50896;46.714;17.322;2023-03-01T16:17:46;44.42;;;23.95;;
64520;SDS011;50896;46.714;17.322;2023-03-01T16:20:20;41.72;;;24.60;;
64520;SDS011;50896;46.714;17.322;2023-03-01T16:22:54;42.40;;;23.67;;
64520;SDS011;50896;46.714;17.322;2023-03-01T16:25:21;39.15;;;22.95;;
64520;SDS011;50896;46.714;17.322;2023-03-01T16:27:49;41.58;;;22.63;;
64520;SDS011;50896;46.714;17.322;2023-03-01T16:30:17;38.40;;;22.58;;
64520;SDS011;50896;46.714;17.322;2023-03-01T16:32:47;40.72;;;23.50;;
64520;SDS011;50896;46.714;17.322;2023-03-01T16:35:16;41.65;;;23.92;;
64520;SDS011;50896;46.714;17.322;2023-03-01T16:37:45;39.33;;;23.65;;
64520;SDS011;50896;46.714;17.322;2023-03-01T16:40:23;42.83;;;22.73;;
64520;SDS011;50896;46.714;17.322;2023-03-01T16:42:52;37.10;;;22.70;;
64520;SDS011;50896;46.714;17.322;2023-03-01T16:45:21;36.93;;;22.33;;
64520;SDS011;50896;46.714;17.322;2023-03-01T16:47:50;40.78;;;23.15;;
64520;SDS011;50896;46.714;17.322;2023-03-01T16:50:21;39.60;;;23.80;;
64520;SDS011;50896;46.714;17.322;2023-03-01T16:52:49;42.72;;;25.75;;